createdAt,value
2018-07-14T00:00:46.996Z,5.47
2018-07-14T00:03:15.483Z,5.90
2018-07-14T00:05:43.964Z,5.77
2018-07-14T00:08:12.402Z,5.70
2018-07-14T00:10:40.857Z,5.50
2018-07-14T00:13:09.360Z,6.37
2018-07-14T00:15:37.942Z,5.80
2018-07-14T00:18:06.402Z,5.73
2018-07-14T00:20:34.843Z,6.00
2018-07-14T00:23:03.303Z,5.60
2018-07-14T00:25:37.047Z,5.70
2018-07-14T00:28:05.827Z,6.40
2018-07-14T00:30:34.276Z,5.70
2018-07-14T00:33:02.751Z,6.60
2018-07-14T00:35:31.201Z,6.23
2018-07-14T00:37:59.668Z,5.80
2018-07-14T00:40:28.143Z,6.20
2018-07-14T00:42:56.868Z,6.40
2018-07-14T00:45:25.346Z,6.07
2018-07-14T00:47:53.810Z,5.67
2018-07-14T00:50:22.539Z,6.20
2018-07-14T00:52:51.026Z,6.10
2018-07-14T00:55:19.747Z,6.03
2018-07-14T00:57:48.556Z,6.13
2018-07-14T01:00:17.051Z,5.90
2018-07-14T01:02:45.549Z,6.53
2018-07-14T01:05:13.995Z,6.63
2018-07-14T01:07:42.463Z,6.37
2018-07-14T01:10:10.935Z,6.50
2018-07-14T01:12:39.090Z,6.23
2018-07-14T01:15:07.549Z,6.10
2018-07-14T01:17:36.021Z,6.33
2018-07-14T01:20:04.463Z,7.23
2018-07-14T01:22:32.938Z,6.90
2018-07-14T01:25:01.384Z,6.87
2018-07-14T01:27:29.857Z,6.60
2018-07-14T01:29:58.280Z,6.93
2018-07-14T01:32:26.718Z,7.93
2018-07-14T01:34:55.455Z,7.00
2018-07-14T01:37:23.894Z,6.80
2018-07-14T01:39:52.560Z,8.00
2018-07-14T01:42:21.057Z,6.90
2018-07-14T01:44:49.778Z,7.40
2018-07-14T01:47:18.310Z,7.40
2018-07-14T01:49:46.755Z,6.30
2018-07-14T01:52:15.266Z,7.70
2018-07-14T01:54:43.753Z,6.53
2018-07-14T01:57:12.244Z,6.87
2018-07-14T01:59:40.730Z,7.60
2018-07-14T02:02:09.499Z,8.27
2018-07-14T02:04:37.951Z,7.40
2018-07-14T02:07:06.765Z,7.60
2018-07-14T02:09:35.234Z,6.67
2018-07-14T02:12:03.855Z,6.93
2018-07-14T02:14:32.318Z,7.27
2018-07-14T02:17:00.801Z,7.63
2018-07-14T02:19:29.534Z,7.83
2018-07-14T02:21:58.247Z,7.93
2018-07-14T02:24:26.694Z,8.10
2018-07-14T02:26:55.157Z,6.93
2018-07-14T02:29:23.591Z,7.77
2018-07-14T02:31:52.048Z,7.70
2018-07-14T02:34:20.482Z,8.33
2018-07-14T02:36:48.928Z,7.67
2018-07-14T02:39:17.403Z,7.60
2018-07-14T02:41:45.870Z,7.50
2018-07-14T02:44:14.357Z,7.50
2018-07-14T02:46:42.803Z,8.93
2018-07-14T02:49:11.271Z,8.10
2018-07-14T02:51:39.689Z,7.33
2018-07-14T02:54:08.171Z,9.33
2018-07-14T02:56:36.875Z,7.33
2018-07-14T02:59:05.527Z,8.20
2018-07-14T03:01:33.963Z,7.90
2018-07-14T03:04:02.410Z,8.27
2018-07-14T03:06:30.902Z,7.50
2018-07-14T03:08:59.356Z,8.57
2018-07-14T03:11:27.790Z,7.97
2018-07-14T03:13:56.603Z,8.13
2018-07-14T03:16:25.089Z,8.10
2018-07-14T03:18:53.870Z,8.47
2018-07-14T03:21:22.327Z,7.60
2018-07-14T03:23:50.951Z,7.93
2018-07-14T03:26:19.442Z,8.13
2018-07-14T03:28:47.958Z,8.23
2018-07-14T03:31:17.240Z,8.70
2018-07-14T03:33:46.508Z,7.97
2018-07-14T03:36:16.263Z,8.47
2018-07-14T03:38:46.898Z,8.87
2018-07-14T03:41:18.298Z,7.80
2018-07-14T03:43:49.950Z,8.43
2018-07-14T03:46:19.916Z,8.37
2018-07-14T03:48:51.243Z,8.53
2018-07-14T03:51:19.800Z,8.20
2018-07-14T03:53:48.312Z,9.03
2018-07-14T03:56:16.815Z,8.30
2018-07-14T03:58:45.835Z,8.87
2018-07-14T04:01:14.305Z,8.33
2018-07-14T04:03:43.054Z,8.47
2018-07-14T04:06:11.531Z,8.00
2018-07-14T04:08:40.032Z,8.97
2018-07-14T04:11:08.505Z,8.63
2018-07-14T04:13:37.001Z,8.83
2018-07-14T04:16:05.764Z,8.30
2018-07-14T04:18:34.222Z,8.90
2018-07-14T04:21:02.382Z,8.67
2018-07-14T04:23:30.858Z,8.87
2018-07-14T04:25:59.307Z,8.43
2018-07-14T04:28:27.792Z,8.43
2018-07-14T04:30:56.303Z,8.30
2018-07-14T04:33:24.821Z,8.43
2018-07-14T04:35:53.275Z,8.43
2018-07-14T04:38:21.772Z,8.47
2018-07-14T04:40:50.240Z,10.03
2018-07-14T04:43:18.721Z,8.10
2018-07-14T04:45:47.217Z,8.60
2018-07-14T04:48:15.727Z,7.97
2018-07-14T04:50:44.220Z,8.43
2018-07-14T04:53:12.734Z,7.30
2018-07-14T04:55:41.164Z,7.83
2018-07-14T04:58:09.656Z,7.97
2018-07-14T05:00:38.151Z,8.03
2018-07-14T05:03:06.616Z,8.30
2018-07-14T05:05:35.087Z,8.00
2018-07-14T05:08:03.578Z,7.40
2018-07-14T05:10:32.042Z,8.40
2018-07-14T05:13:00.535Z,7.90
2018-07-14T05:15:29.058Z,7.77
2018-07-14T05:17:57.572Z,7.27
2018-07-14T05:20:26.060Z,6.70
2018-07-14T05:22:54.542Z,7.57
2018-07-14T05:25:23.045Z,7.47
2018-07-14T05:27:51.491Z,8.33
2018-07-14T05:30:19.977Z,7.70
2018-07-14T05:32:48.431Z,7.43
2018-07-14T05:35:16.918Z,7.07
2018-07-14T05:37:45.376Z,8.03
2018-07-14T05:40:13.860Z,7.60
2018-07-14T05:42:42.317Z,7.83
2018-07-14T05:45:10.798Z,7.60
2018-07-14T05:47:39.540Z,8.33
2018-07-14T05:50:08.066Z,7.90
2018-07-14T05:52:36.548Z,8.83
2018-07-14T05:55:05.410Z,8.63
2018-07-14T05:57:33.905Z,8.30
2018-07-14T06:00:02.391Z,8.40
2018-07-14T06:02:30.968Z,8.50
2018-07-14T06:04:59.455Z,8.03
2018-07-14T06:07:27.938Z,7.10
2018-07-14T06:09:56.406Z,7.27
2018-07-14T06:12:24.876Z,7.30
2018-07-14T06:14:53.447Z,9.07
2018-07-14T06:17:21.929Z,7.20
2018-07-14T06:19:50.408Z,6.73
2018-07-14T06:22:18.891Z,6.73
2018-07-14T06:24:47.431Z,7.27
2018-07-14T06:27:16.164Z,6.93
2018-07-14T06:29:44.653Z,6.60
2018-07-14T06:32:13.123Z,6.23
2018-07-14T06:34:41.611Z,6.23
2018-07-14T06:37:10.080Z,6.20
2018-07-14T06:39:38.548Z,5.83
2018-07-14T06:42:07.051Z,6.60
2018-07-14T06:44:35.536Z,6.73
2018-07-14T06:47:03.999Z,6.80
2018-07-14T06:49:32.524Z,6.73
2018-07-14T06:52:01.618Z,6.37
2018-07-14T06:54:30.163Z,6.50
2018-07-14T06:56:58.847Z,5.80
2018-07-14T06:59:27.395Z,6.47
2018-07-14T07:01:55.885Z,6.27
2018-07-14T07:04:24.630Z,5.93
2018-07-14T07:06:53.125Z,5.37
2018-07-14T07:09:21.609Z,5.10
2018-07-14T07:11:50.331Z,5.77
2018-07-14T07:14:19.199Z,5.70
2018-07-14T07:16:47.644Z,5.07
2018-07-14T07:19:16.117Z,5.77
2018-07-14T07:21:44.598Z,5.43
2018-07-14T07:24:13.134Z,5.07
2018-07-14T07:26:41.579Z,5.27
2018-07-14T07:29:10.079Z,6.10
2018-07-14T07:31:38.526Z,4.90
2018-07-14T07:34:07.051Z,4.97
2018-07-14T07:36:35.482Z,5.30
2018-07-14T07:39:04.726Z,4.57
2018-07-14T07:41:33.138Z,4.77
2018-07-14T07:44:01.571Z,4.30
2018-07-14T07:46:30.052Z,4.90
2018-07-14T07:48:58.751Z,4.80
2018-07-14T07:51:27.219Z,4.60
2018-07-14T07:53:55.914Z,4.03
2018-07-14T07:56:24.395Z,4.40
2018-07-14T07:58:52.837Z,4.87
2018-07-14T08:01:21.300Z,4.60
2018-07-14T08:03:49.731Z,4.90
2018-07-14T08:06:18.419Z,4.80
2018-07-14T08:08:47.191Z,4.40
2018-07-14T08:11:15.642Z,4.83
2018-07-14T08:13:44.078Z,3.90
2018-07-14T08:16:12.608Z,4.73
2018-07-14T08:18:41.282Z,4.70
2018-07-14T08:21:09.758Z,4.27
2018-07-14T08:23:38.190Z,3.53
2018-07-14T08:26:06.735Z,4.23
2018-07-14T08:28:35.196Z,3.80
2018-07-14T08:31:03.733Z,4.00
2018-07-14T08:33:32.187Z,3.57
2018-07-14T08:36:00.716Z,3.27
2018-07-14T08:38:29.146Z,3.03
2018-07-14T08:40:57.617Z,3.60
2018-07-14T08:43:26.059Z,3.93
2018-07-14T08:45:54.517Z,3.53
2018-07-14T08:48:22.958Z,3.50
2018-07-14T08:50:51.417Z,3.50
2018-07-14T08:53:20.167Z,3.20
2018-07-14T08:55:48.647Z,2.77
2018-07-14T08:58:17.155Z,3.03
2018-07-14T09:00:45.559Z,3.30
2018-07-14T09:03:14.016Z,3.60
2018-07-14T09:05:42.470Z,3.00
2018-07-14T09:08:10.941Z,2.43
2018-07-14T09:10:39.705Z,2.63
2018-07-14T09:13:08.136Z,2.77
2018-07-14T09:15:36.619Z,2.33
2018-07-14T09:18:05.134Z,2.50
2018-07-14T09:20:33.612Z,2.60
2018-07-14T09:23:02.631Z,2.60
2018-07-14T09:25:31.437Z,2.53
2018-07-14T09:28:00.148Z,2.50
2018-07-14T09:30:28.627Z,2.70
2018-07-14T09:32:57.065Z,2.70
2018-07-14T09:35:25.638Z,2.47
2018-07-14T09:37:54.113Z,2.60
2018-07-14T09:40:22.793Z,2.70
2018-07-14T09:42:51.248Z,2.77
2018-07-14T09:45:20.132Z,3.20
2018-07-14T09:47:48.639Z,3.10
2018-07-14T09:50:17.078Z,3.13
2018-07-14T09:52:45.223Z,3.00
2018-07-14T09:55:13.795Z,3.27
2018-07-14T09:57:42.468Z,3.00
2018-07-14T10:00:15.182Z,3.10
2018-07-14T10:02:43.608Z,3.13
2018-07-14T10:05:12.087Z,2.90
2018-07-14T10:07:40.535Z,3.13
2018-07-14T10:10:09.092Z,3.17
2018-07-14T10:12:37.832Z,2.40
2018-07-14T10:15:06.983Z,2.70
2018-07-14T10:17:35.136Z,2.00
2018-07-14T10:20:03.679Z,3.10
2018-07-14T10:22:32.429Z,2.93
2018-07-14T10:25:00.910Z,2.77
2018-07-14T10:27:29.427Z,2.90
2018-07-14T10:29:57.879Z,2.80
2018-07-14T10:32:26.350Z,3.13
2018-07-14T10:34:54.822Z,2.80
2018-07-14T10:37:23.295Z,2.90
2018-07-14T10:39:51.952Z,2.90
2018-07-14T10:42:20.506Z,3.00
2018-07-14T10:44:48.959Z,2.73
2018-07-14T10:47:17.724Z,2.97
2018-07-14T10:49:46.220Z,2.60
2018-07-14T10:52:14.700Z,2.77
2018-07-14T10:54:43.154Z,2.40
2018-07-14T10:57:11.761Z,3.13
2018-07-14T10:59:40.206Z,3.30
2018-07-14T11:02:08.397Z,3.80
2018-07-14T11:04:37.136Z,3.47
2018-07-14T11:07:05.645Z,3.17
2018-07-14T11:09:34.453Z,3.90
2018-07-14T11:12:02.994Z,2.83
2018-07-14T11:14:31.462Z,3.20
2018-07-14T11:16:59.962Z,3.33
2018-07-14T11:19:28.158Z,3.17
2018-07-14T11:21:56.641Z,3.50
2018-07-14T11:24:25.150Z,2.83
2018-07-14T11:26:53.881Z,3.57
2018-07-14T11:29:22.575Z,3.00
2018-07-14T11:31:51.095Z,2.83
2018-07-14T11:34:19.736Z,3.10
2018-07-14T11:36:48.200Z,3.00
2018-07-14T11:39:16.666Z,2.90
2018-07-14T11:41:44.839Z,3.00
2018-07-14T11:44:12.997Z,3.03
2018-07-14T11:46:41.510Z,3.10
2018-07-14T11:49:09.959Z,2.90
2018-07-14T11:51:38.441Z,3.00
2018-07-14T11:54:07.237Z,3.50
2018-07-14T11:56:35.708Z,3.30
2018-07-14T11:59:03.870Z,3.03
2018-07-14T12:01:32.593Z,2.70
2018-07-14T12:04:01.049Z,3.00
2018-07-14T12:06:29.575Z,2.97
2018-07-14T12:08:58.730Z,2.90
2018-07-14T12:11:36.366Z,3.00
2018-07-14T12:14:05.107Z,3.43
2018-07-14T12:16:33.817Z,2.80
2018-07-14T12:19:02.341Z,3.20
2018-07-14T12:21:31.163Z,3.03
2018-07-14T12:23:59.708Z,2.90
2018-07-14T12:26:28.214Z,3.63
2018-07-14T12:28:56.670Z,2.80
2018-07-14T12:31:25.829Z,2.73
2018-07-14T12:33:54.282Z,3.13
2018-07-14T12:36:22.781Z,3.27
2018-07-14T12:38:51.246Z,2.73
2018-07-14T12:41:19.730Z,3.10
2018-07-14T12:43:48.191Z,3.07
2018-07-14T12:46:16.720Z,3.07
2018-07-14T12:48:45.173Z,2.90
2018-07-14T12:51:13.653Z,2.90
2018-07-14T12:53:42.128Z,3.10
2018-07-14T12:56:10.599Z,2.97
2018-07-14T12:58:39.093Z,2.90
2018-07-14T13:01:07.911Z,2.87
2018-07-14T13:03:36.758Z,3.00
2018-07-14T13:06:05.831Z,3.00
2018-07-14T13:08:34.322Z,2.57
2018-07-14T13:11:02.825Z,2.50
2018-07-14T13:13:31.366Z,2.90
2018-07-14T13:15:59.871Z,2.40
2018-07-14T13:18:28.377Z,2.40
2018-07-14T13:20:57.559Z,3.00
2018-07-14T13:23:26.068Z,2.83
2018-07-14T13:25:54.541Z,2.50
2018-07-14T13:28:23.024Z,3.20
2018-07-14T13:30:51.807Z,2.80
2018-07-14T13:33:20.327Z,3.70
2018-07-14T13:35:48.779Z,2.97
2018-07-14T13:38:17.282Z,3.40
2018-07-14T13:40:45.755Z,3.00
2018-07-14T13:43:14.540Z,3.17
2018-07-14T13:45:43.057Z,3.13
2018-07-14T13:48:13.610Z,2.60
2018-07-14T13:50:42.361Z,3.40
2018-07-14T13:53:10.870Z,3.00
2018-07-14T13:55:39.686Z,2.70
2018-07-14T13:58:08.236Z,2.80
2018-07-14T14:00:36.717Z,3.07
2018-07-14T14:03:05.532Z,2.40
2018-07-14T14:05:34.294Z,2.63
2018-07-14T14:08:02.782Z,2.80
2018-07-14T14:10:31.252Z,2.70
2018-07-14T14:12:59.736Z,3.33
2018-07-14T14:15:28.273Z,2.60
2018-07-14T14:17:56.763Z,2.70
2018-07-14T14:20:25.225Z,2.90
2018-07-14T14:22:53.713Z,2.80
2018-07-14T14:25:22.180Z,2.90
2018-07-14T14:27:50.658Z,2.97
2018-07-14T14:30:19.154Z,2.30
2018-07-14T14:32:47.647Z,2.93
2018-07-14T14:35:16.094Z,3.03
2018-07-14T14:37:44.602Z,3.30
2018-07-14T14:40:13.080Z,3.77
2018-07-14T14:42:41.583Z,13.20
2018-07-14T14:45:09.725Z,3.30
2018-07-14T14:47:38.271Z,2.67
2018-07-14T14:50:06.740Z,3.13
2018-07-14T14:52:35.496Z,2.83
2018-07-14T14:55:04.016Z,3.20
2018-07-14T14:57:32.530Z,3.47
2018-07-14T15:00:01.027Z,3.00
2018-07-14T15:02:30.667Z,2.77
2018-07-14T15:05:00.895Z,2.83
2018-07-14T15:07:29.463Z,2.97
2018-07-14T15:09:58.267Z,2.80
2018-07-14T15:12:26.843Z,2.83
2018-07-14T15:14:55.735Z,2.80
2018-07-14T15:17:24.331Z,2.90
2018-07-14T15:19:53.467Z,2.50
2018-07-14T15:22:22.249Z,2.50
2018-07-14T15:24:51.027Z,2.53
2018-07-14T15:27:19.845Z,2.40
2018-07-14T15:29:48.324Z,2.77
2018-07-14T15:32:16.887Z,4.60
2018-07-14T15:34:45.354Z,3.10
2018-07-14T15:37:13.816Z,2.93
2018-07-14T15:39:42.337Z,3.60
2018-07-14T15:42:11.459Z,3.27
2018-07-14T15:44:40.275Z,3.07
2018-07-14T15:47:08.770Z,3.43
2018-07-14T15:49:37.313Z,3.13
2018-07-14T15:52:06.414Z,2.93
2018-07-14T15:54:34.933Z,3.20
2018-07-14T15:57:03.408Z,2.80
2018-07-14T15:59:31.958Z,2.83
2018-07-14T16:02:00.436Z,3.00
2018-07-14T16:04:28.939Z,3.40
2018-07-14T16:06:57.406Z,3.47
2018-07-14T16:09:26.221Z,2.90
2018-07-14T16:11:54.716Z,2.93
2018-07-14T16:14:23.234Z,3.57
2018-07-14T16:16:51.694Z,2.97
2018-07-14T16:19:20.210Z,2.83
2018-07-14T16:21:48.825Z,3.17
2018-07-14T16:24:17.400Z,3.00
2018-07-14T16:26:45.912Z,3.00
2018-07-14T16:29:14.397Z,3.37
2018-07-14T16:31:42.864Z,3.27
2018-07-14T16:34:11.370Z,3.37
2018-07-14T16:36:39.835Z,3.47
2018-07-14T16:39:09.317Z,3.50
2018-07-14T16:41:37.927Z,3.20
2018-07-14T16:44:06.492Z,3.70
2018-07-14T16:46:35.003Z,3.60
2018-07-14T16:49:03.511Z,3.00
2018-07-14T16:51:32.000Z,3.07
2018-07-14T16:54:00.473Z,2.93
2018-07-14T16:56:29.240Z,3.40
2018-07-14T16:58:57.426Z,3.10
2018-07-14T17:01:25.941Z,2.70
2018-07-14T17:03:54.733Z,3.90
2018-07-14T17:06:23.215Z,2.73
2018-07-14T17:08:51.671Z,3.20
2018-07-14T17:11:20.108Z,4.20
2018-07-14T17:13:48.618Z,6.20
2018-07-14T17:16:17.078Z,6.90
2018-07-14T17:18:45.542Z,8.90
2018-07-14T17:21:13.977Z,5.53
2018-07-14T17:23:42.458Z,5.00
2018-07-14T17:26:10.908Z,4.90
2018-07-14T17:28:39.560Z,4.40
2018-07-14T17:31:07.998Z,5.70
2018-07-14T17:33:37.042Z,12.57
2018-07-14T17:36:05.533Z,9.23
2018-07-14T17:38:34.329Z,7.70
2018-07-14T17:41:03.143Z,5.80
2018-07-14T17:43:32.047Z,7.23
2018-07-14T17:46:00.560Z,6.67
2018-07-14T17:48:29.652Z,9.43
2018-07-14T17:50:58.112Z,6.43
2018-07-14T17:53:26.288Z,4.83
2018-07-14T17:55:55.067Z,4.40
2018-07-14T17:58:23.523Z,3.87
2018-07-14T18:00:52.374Z,3.57
2018-07-14T18:03:21.030Z,3.17
2018-07-14T18:05:49.822Z,3.40
2018-07-14T18:08:19.197Z,3.60
2018-07-14T18:10:47.722Z,4.33
2018-07-14T18:13:16.154Z,3.97
2018-07-14T18:15:44.351Z,4.57
2018-07-14T18:18:12.828Z,3.90
2018-07-14T18:20:41.319Z,3.90
2018-07-14T18:23:09.834Z,3.60
2018-07-14T18:25:38.338Z,3.80
2018-07-14T18:28:07.147Z,3.77
2018-07-14T18:30:35.935Z,3.90
2018-07-14T18:33:04.480Z,3.77
2018-07-14T18:35:33.243Z,3.53
2018-07-14T18:38:01.764Z,4.60
2018-07-14T18:40:30.259Z,4.17
2018-07-14T18:42:58.996Z,4.37
2018-07-14T18:45:27.498Z,4.73
2018-07-14T18:47:56.290Z,4.20
2018-07-14T18:50:24.811Z,3.77
2018-07-14T18:52:53.590Z,3.77
2018-07-14T18:55:22.076Z,4.10
2018-07-14T18:57:50.547Z,5.10
2018-07-14T19:00:19.115Z,4.07
2018-07-14T19:02:47.990Z,3.60
2018-07-14T19:05:16.433Z,3.50
2018-07-14T19:07:44.891Z,3.83
2018-07-14T19:10:13.496Z,3.53
2018-07-14T19:12:42.041Z,3.43
2018-07-14T19:15:10.595Z,4.17
2018-07-14T19:17:39.052Z,4.50
2018-07-14T19:20:08.074Z,4.00
2018-07-14T19:22:36.825Z,4.03
2018-07-14T19:25:05.360Z,3.67
2018-07-14T19:27:33.844Z,4.00
2018-07-14T19:30:02.329Z,4.73
2018-07-14T19:32:30.791Z,4.23
2018-07-14T19:34:59.285Z,4.70
2018-07-14T19:37:27.760Z,4.60
2018-07-14T19:39:56.248Z,4.20
2018-07-14T19:42:24.712Z,4.90
2018-07-14T19:44:54.041Z,4.83
2018-07-14T19:47:22.675Z,4.50
2018-07-14T19:49:51.207Z,4.70
2018-07-14T19:52:19.696Z,6.30
2018-07-14T19:54:48.728Z,7.10
2018-07-14T19:57:17.334Z,6.50
2018-07-14T19:59:45.826Z,7.60
2018-07-14T20:02:14.283Z,12.03
2018-07-14T20:04:43.032Z,15.77
2018-07-14T20:07:11.832Z,10.40
2018-07-14T20:09:40.337Z,6.77
2018-07-14T20:12:08.839Z,5.27
2018-07-14T20:14:37.427Z,5.03
2018-07-14T20:17:05.992Z,4.77
2018-07-14T20:19:34.507Z,4.93
2018-07-14T20:22:03.079Z,4.80
2018-07-14T20:24:31.242Z,4.33
2018-07-14T20:27:00.062Z,4.60
2018-07-14T20:29:28.836Z,4.80
2018-07-14T20:31:57.595Z,4.70
2018-07-14T20:34:26.042Z,4.80
2018-07-14T20:36:55.066Z,5.40
2018-07-14T20:39:23.523Z,5.50
2018-07-14T20:41:52.443Z,4.93
2018-07-14T20:44:21.075Z,5.13
2018-07-14T20:46:49.579Z,4.73
2018-07-14T20:49:18.039Z,5.23
2018-07-14T20:51:46.525Z,5.60
2018-07-14T20:54:15.003Z,5.07
2018-07-14T20:56:43.493Z,4.77
2018-07-14T20:59:12.004Z,6.10
2018-07-14T21:01:40.472Z,5.50
2018-07-14T21:04:08.947Z,5.60
2018-07-14T21:06:37.742Z,5.90
2018-07-14T21:09:06.911Z,5.63
2018-07-14T21:11:35.585Z,5.50
2018-07-14T21:14:04.316Z,5.27
2018-07-14T21:16:32.837Z,5.67
2018-07-14T21:19:01.278Z,5.90
2018-07-14T21:21:29.840Z,5.87
2018-07-14T21:23:58.607Z,6.20
2018-07-14T21:26:27.154Z,6.30
2018-07-14T21:28:55.883Z,5.50
2018-07-14T21:31:24.687Z,5.97
2018-07-14T21:33:53.162Z,5.60
2018-07-14T21:36:21.725Z,5.80
2018-07-14T21:38:50.163Z,6.50
2018-07-14T21:41:18.651Z,5.53
2018-07-14T21:43:47.104Z,6.10
2018-07-14T21:46:15.681Z,6.23
2018-07-14T21:48:44.151Z,5.50
2018-07-14T21:51:12.655Z,6.10
2018-07-14T21:53:41.118Z,5.93
2018-07-14T21:56:09.877Z,6.10
2018-07-14T21:58:38.639Z,5.70
2018-07-14T22:01:12.513Z,5.97
2018-07-14T22:03:41.001Z,6.50
2018-07-14T22:06:09.485Z,6.03
2018-07-14T22:08:37.970Z,6.80
2018-07-14T22:11:06.477Z,6.10
2018-07-14T22:13:34.938Z,6.87
2018-07-14T22:16:03.671Z,5.80
2018-07-14T22:18:32.144Z,6.27
2018-07-14T22:21:00.590Z,6.33
2018-07-14T22:23:29.320Z,6.30
2018-07-14T22:25:57.783Z,7.10
2018-07-14T22:28:26.520Z,6.50
2018-07-14T22:30:54.991Z,6.87
2018-07-14T22:33:23.434Z,6.40
2018-07-14T22:35:51.907Z,6.37
2018-07-14T22:38:20.339Z,6.60
2018-07-14T22:40:48.807Z,7.47
2018-07-14T22:43:17.268Z,7.70
2018-07-14T22:45:45.741Z,6.97
2018-07-14T22:48:14.170Z,7.33
2018-07-14T22:50:42.637Z,7.67
2018-07-14T22:53:11.099Z,8.00
2018-07-14T22:55:39.573Z,7.23
2018-07-14T22:58:08.326Z,7.27
2018-07-14T23:00:36.768Z,7.63
2018-07-14T23:03:05.383Z,7.60
2018-07-14T23:05:34.110Z,7.40
2018-07-14T23:08:02.585Z,7.20
2018-07-14T23:10:31.023Z,7.50
2018-07-14T23:12:59.473Z,6.90
2018-07-14T23:15:27.973Z,7.40
2018-07-14T23:17:56.476Z,7.60
2018-07-14T23:20:24.942Z,7.30
2018-07-14T23:22:54.307Z,7.63
2018-07-14T23:25:22.783Z,6.80
2018-07-14T23:27:51.259Z,7.30
2018-07-14T23:30:20.019Z,7.43
2018-07-14T23:32:48.518Z,7.00
2018-07-14T23:35:17.031Z,7.23
2018-07-14T23:37:45.703Z,7.50
2018-07-14T23:40:14.359Z,7.80
2018-07-14T23:42:42.870Z,7.30
2018-07-14T23:45:11.354Z,7.10
2018-07-14T23:47:39.823Z,7.73
2018-07-14T23:50:08.304Z,8.07
2018-07-14T23:52:36.778Z,8.20
2018-07-14T23:55:06.326Z,6.93
2018-07-14T23:57:34.824Z,7.57
